• Join FlightAware (Why Join?)
  • Login
  • US Flag 
01:15AM EDT


 

Airport Tracker/Info


-or-


 

Live Flight TrackerFlight Track Log ✈ SWA709 ✈ 25-Apr-2013 ✈ KLAS - KSJC

Flight Track Log - Related Links

Times and Time Zones

All times are in EDT time to prevent confusion due to time zone crossing. See the SWA709 flight status page for this flight to view local times or setup timezone preferences in your user account.

Time Position Orientation Groundspeed Altitude Reporting Facility
EDT Latitude Longitude Course Direction KTS MPH feet Rate Location/Type
10:46AM 36.0722 -115.2306 267° West 213 245 4,900  Level Los Angeles Center
10:47AM 36.0369 -115.2700 222° Southwest 247 284 6,700 2,160 Climbing Los Angeles Center
10:48AM 35.9653 -115.3094 204° Southwest 274 315 9,000 3,120 Climbing Los Angeles Center
10:49AM 35.9058 -115.3803 224° Southwest 290 334 13,200 3,240 Climbing Los Angeles Center
10:50AM 35.8864 -115.4778 256° West 300 345 15,800 2,640 Climbing Los Angeles Center
10:51AM 36.0809 -115.1645 275° West  Level FlightAware Approximate
10:51AM 35.8903 -115.6158 272° West 356 410 18,700  Level Los Angeles Center
10:52AM 35.8917 -115.7506 271° West 391 450 21,400 2,580 Climbing Los Angeles Center
10:53AM 35.8958 -115.8967 272° West 408 470 24,000 2,220 Climbing Los Angeles Center
10:54AM 35.9303 -116.0086 291° West 415 478 26,100 2,340 Climbing Los Angeles Center
10:55AM 36.0256 -116.1189 317° Northwest 417 480 28,900 2,580 Climbing Los Angeles Center
10:56AM 36.1142 -116.2206 317° Northwest 411 473 31,500 1,500 Climbing Los Angeles Center
10:57AM 36.1958 -116.3158 317° Northwest 407 468 32,000 240 Climbing Los Angeles Center
10:58AM 36.2764 -116.4117 316° Northwest 404 465 32,000  Level Los Angeles Center
10:59AM 36.3156 -116.5428 290° West 411 473 32,000  Level Los Angeles Center
11:00AM 36.3494 -116.6742 288° West 405 466 32,000  Level Los Angeles Center
11:01AM 36.3892 -116.8314 287° West 401 461 32,000  Level Los Angeles Center
11:02AM 36.4231 -116.9644 288° West 405 466 32,000  Level Los Angeles Center
11:03AM 36.4561 -117.0964 287° West 404 465 32,000  Level Los Angeles Center
11:04AM 36.4892 -117.2306 287° West 407 468 32,000  Level Los Angeles Center
11:05AM 36.5150 -117.3375 287° West 407 468 32,000  Level Los Angeles Center
11:06AM 36.5547 -117.4981 287° West 407 468 32,000  Level Los Angeles Center
11:07AM 36.5939 -117.6592 287° West 407 468 32,000  Level Los Angeles Center
11:09AM 36.6267 -117.7944 287° West 408 470 32,000  Level Los Angeles Center
11:10AM 36.6667 -117.9578 287° West 410 472 32,000  Level Los Angeles Center
11:11AM 36.6989 -118.0950 286° West 412 474 32,000  Level Los Angeles Center
11:12AM 36.7314 -118.2342 286° West 415 478 32,000  Level Los Angeles Center
11:13AM 36.7636 -118.3694 287° West 412 474 32,000  Level Los Angeles Center
11:13AM 36.7847 -118.4603 286° West 414 476 32,000  Level Oakland Center
11:14AM 36.8164 -118.5997 286° West 410 472 32,000  Level Oakland Center
11:15AM 36.8492 -118.7378 287° West 414 476 32,000  Level Oakland Center
11:16AM 36.8825 -118.8797 286° West 422 486 32,000  Level Oakland Center
11:17AM 36.9139 -119.0169 286° West 415 478 32,000  Level Oakland Center
11:18AM 36.9447 -119.1531 286° West 412 474 32,000  Level Oakland Center
11:19AM 36.9750 -119.2903 285° West 415 478 32,000 -600 Level Oakland Center
11:20AM 37.0117 -119.4556 286° West 420 483 30,900 -1,080 Descending Oakland Center
11:21AM 37.0417 -119.5897 286° West 401 461 29,900 -1,260 Descending Oakland Center
11:22AM 37.0703 -119.7211 285° West 394 453 28,400 -1,740 Descending Oakland Center
11:23AM 37.0972 -119.8514 285° West 375 432 26,400 -1,920 Descending Oakland Center
11:24AM 37.1250 -119.9764 286° West 372 428 24,500 -1,860 Descending Oakland Center
11:26AM 37.1508 -120.0975 285° West 360 414 22,600 -1,920 Descending Oakland Center
11:27AM 37.1772 -120.2175 285° West 358 412 20,700 -1,860 Descending Oakland Center
11:28AM 37.2017 -120.3314 285° West 339 390 18,900 -1,920 Descending Oakland Center
11:28AM 37.2167 -120.4167 282° West 340 391 17,400 -1,680 Descending Northern Cal TRACON
11:29AM 37.1833 -120.5333 250° West 370 426 16,000 -1,200 Descending Northern Cal TRACON
11:30AM 37.1667 -120.6333 258° West 320 368 15,100 -960 Descending Northern Cal TRACON
11:31AM 37.1500 -120.7333 258° West 319 367 14,200 -1,200 Descending Northern Cal TRACON
11:33AM 37.1231 -120.8908 258° West 290 334 12,300 -1,380 Descending Oakland Center
11:34AM 37.1289 -121.0058 274° West 320 368 10,900 -1,140 Descending Oakland Center
11:35AM 37.1350 -121.1122 274° West 311 358 10,100 -480 Descending Oakland Center
11:36AM 37.1406 -121.2189 274° West 307 353 10,000 -60 Descending Oakland Center
11:37AM 37.1194 -121.3081 253° West 289 333 10,000 -720 Level Oakland Center
11:38AM 37.0717 -121.3847 232° Southwest 279 321 8,600 -1,080 Descending Oakland Center
11:39AM 37.0222 -121.4614 231° Southwest 280 322 7,900 -540 Descending Oakland Center
11:40AM 36.9903 -121.5336 241° Southwest 263 303 7,600 -660 Descending Oakland Center
11:41AM 37.0372 -121.5856 319° Northwest 237 273 6,600 -900 Descending Oakland Center
11:42AM 37.0869 -121.6378 320° Northwest 234 269 5,800 -780 Descending Oakland Center
11:43AM 37.1500 -121.7000 322° Northwest 225 259 5,100 -780 Descending Northern Cal TRACON
11:44AM 37.1922 -121.7439 320° Northwest 221 254 4,300 -1,020 Descending Oakland Center
11:45AM 37.2372 -121.7942 318° Northwest 217 250 3,100 -1,080 Descending Oakland Center
11:46AM 37.2797 -121.8392 320° Northwest 206 237 2,200 -960 Descending Oakland Center
11:47AM 37.3161 -121.8789 319° Northwest 190 219 1,200 -960 Descending Oakland Center
11:48AM 37.3467 -121.9117 320° Northwest 165 190 300 -900 Descending Oakland Center
11:50AM 37.3500 -121.9167 North  Level FlightAware Approximate
11:57AM 37.3627 -121.9291 North  Level Estimated